Time,TemperatureF,DewpointF,PressureIn,WindDirection,WindDirectionDegrees,WindSpeedMPH,WindSpeedGustMPH,Humidity,HourlyPrecipIn,Conditions,Clouds,dailyrainin,SoftwareType,DateUTC
2013-01-14 00:00:00,67.0,64.9,30.13,SW,225,0.0,0.0,93,0.00,,,0.00,Wunderground v.1.13,2013-01-14 05:00:00,
2013-01-14 00:04:00,67.3,65.2,30.13,SW,225,0.0,0.0,93,0.00,,,0.00,Wunderground v.1.13,2013-01-14 05:04:00,
2013-01-14 00:08:00,67.7,65.6,30.13,SW,225,0.0,0.0,93,0.00,,,0.00,Wunderground v.1.13,2013-01-14 05:08:00,
2013-01-14 00:10:00,67.8,65.4,30.13,SW,225,0.0,0.0,92,0.00,,,0.00,Wunderground v.1.13,2013-01-14 05:10:00,
2013-01-14 00:16:00,68.1,65.7,30.13,SW,225,0.0,0.0,92,0.00,,,0.00,Wunderground v.1.13,2013-01-14 05:16:00,
2013-01-14 00:22:00,68.4,65.7,30.13,SW,225,0.0,0.0,91,0.00,,,0.00,Wunderground v.1.13,2013-01-14 05:22:00,
2013-01-14 00:28:00,68.4,65.7,30.13,SW,225,0.0,0.0,91,0.00,,,0.00,Wunderground v.1.13,2013-01-14 05:28:00,
2013-01-14 00:34:00,68.3,65.6,30.13,SW,225,0.0,0.0,91,0.00,,,0.00,Wunderground v.1.13,2013-01-14 05:34:00,
2013-01-14 00:40:00,68.3,65.6,30.13,SW,225,0.0,0.0,91,0.00,,,0.00,Wunderground v.1.13,2013-01-14 05:40:00,
2013-01-14 00:46:00,68.3,65.6,30.13,SW,225,0.0,0.0,91,0.00,,,0.00,Wunderground v.1.13,2013-01-14 05:46:00,
2013-01-14 00:52:00,68.3,65.6,30.12,SW,225,0.0,0.0,91,0.00,,,0.00,Wunderground v.1.13,2013-01-14 05:52:00,
2013-01-14 00:58:00,68.2,65.5,30.13,SW,225,0.0,0.0,91,0.00,,,0.00,Wunderground v.1.13,2013-01-14 05:58:00,
2013-01-14 01:04:00,68.1,65.4,30.13,SW,225,0.0,0.0,91,0.00,,,0.00,Wunderground v.1.13,2013-01-14 06:04:00,
2013-01-14 01:10:00,67.9,65.2,30.13,SW,225,0.0,0.0,91,0.00,,,0.00,Wunderground v.1.13,2013-01-14 06:10:00,
2013-01-14 01:16:00,67.8,65.1,30.13,SW,225,0.0,0.0,91,0.00,,,0.00,Wunderground v.1.13,2013-01-14 06:16:00,
2013-01-14 01:22:00,67.7,65.0,30.13,SW,225,0.0,0.0,91,0.00,,,0.00,Wunderground v.1.13,2013-01-14 06:22:00,
2013-01-14 01:28:00,67.7,65.0,30.13,SW,225,0.0,0.0,91,0.00,,,0.00,Wunderground v.1.13,2013-01-14 06:28:00,
2013-01-14 01:34:00,67.7,65.3,30.14,SW,225,0.0,0.0,92,0.00,,,0.00,Wunderground v.1.13,2013-01-14 06:34:00,
2013-01-14 01:40:00,67.8,65.4,30.14,SW,225,0.0,0.0,92,0.00,,,0.00,Wunderground v.1.13,2013-01-14 06:40:00,
2013-01-14 01:46:00,68.1,65.7,30.14,SW,225,0.0,0.0,92,0.00,,,0.00,Wunderground v.1.13,2013-01-14 06:46:00,
2013-01-14 01:52:00,68.4,65.7,30.14,SW,225,0.0,0.0,91,0.00,,,0.00,Wunderground v.1.13,2013-01-14 06:52:00,
2013-01-14 01:58:00,68.6,65.9,30.14,SW,225,0.0,0.0,91,0.00,,,0.00,Wunderground v.1.13,2013-01-14 06:58:00,
2013-01-14 02:04:00,68.6,65.9,30.14,SW,225,0.0,0.0,91,0.00,,,0.00,Wunderground v.1.13,2013-01-14 07:04:00,
2013-01-14 02:10:00,68.7,65.6,30.14,SW,225,0.0,0.0,90,0.00,,,0.00,Wunderground v.1.13,2013-01-14 07:10:00,
2013-01-14 02:16:00,68.8,65.7,30.14,SW,225,0.0,0.0,90,0.00,,,0.00,Wunderground v.1.13,2013-01-14 07:16:00,
2013-01-14 02:22:00,68.9,65.8,30.14,South,187,0.0,1.0,90,0.00,,,0.00,Wunderground v.1.13,2013-01-14 07:22:00,
2013-01-14 02:28:00,69.0,65.9,30.14,South,184,0.0,0.0,90,0.00,,,0.00,Wunderground v.1.13,2013-01-14 07:28:00,
2013-01-14 02:34:00,69.0,65.9,30.15,South,184,0.0,0.0,90,0.00,,,0.00,Wunderground v.1.13,2013-01-14 07:34:00,
2013-01-14 02:40:00,69.1,65.7,30.15,South,184,0.0,0.0,89,0.00,,,0.00,Wunderground v.1.13,2013-01-14 07:40:00,
2013-01-14 02:46:00,69.1,65.7,30.14,South,183,0.0,0.0,89,0.00,,,0.00,Wunderground v.1.13,2013-01-14 07:46:00,
2013-01-14 02:52:00,69.2,65.8,30.14,South,183,0.0,0.0,89,0.00,,,0.00,Wunderground v.1.13,2013-01-14 07:52:00,
2013-01-14 02:58:00,69.3,65.6,30.14,South,184,0.0,0.0,88,0.00,,,0.00,Wunderground v.1.13,2013-01-14 07:58:00,
2013-01-14 03:04:00,69.3,65.6,30.14,South,184,0.0,1.0,88,0.00,,,0.00,Wunderground v.1.13,2013-01-14 08:04:00,
2013-01-14 03:10:00,69.4,65.4,30.14,SSE,157,1.0,5.0,87,0.00,,,0.00,Wunderground v.1.13,2013-01-14 08:10:00,
2013-01-14 03:16:00,69.5,65.1,30.14,SSE,156,3.0,6.0,86,0.00,,,0.00,Wunderground v.1.13,2013-01-14 08:16:00,
2013-01-14 03:22:00,69.5,65.1,30.14,SSE,152,1.0,3.0,86,0.00,,,0.00,Wunderground v.1.13,2013-01-14 08:22:00,
2013-01-14 03:28:00,69.4,65.0,30.14,SSE,152,1.0,1.0,86,0.00,,,0.00,Wunderground v.1.13,2013-01-14 08:28:00,
2013-01-14 03:34:00,69.3,64.9,30.14,SSE,153,1.0,7.0,86,0.00,,,0.00,Wunderground v.1.13,2013-01-14 08:34:00,
2013-01-14 03:40:00,69.0,64.6,30.13,SSE,153,1.0,1.0,86,0.00,,,0.00,Wunderground v.1.13,2013-01-14 08:40:00,
2013-01-14 03:46:00,68.9,64.5,30.14,SSE,153,0.0,1.0,86,0.00,,,0.00,Wunderground v.1.13,2013-01-14 08:46:00,
2013-01-14 03:52:00,68.6,64.6,30.13,SSE,153,0.0,0.0,87,0.00,,,0.00,Wunderground v.1.13,2013-01-14 08:52:00,
2013-01-14 03:58:00,68.4,64.4,30.13,SSE,153,0.0,0.0,87,0.00,,,0.00,Wunderground v.1.13,2013-01-14 08:58:00,
2013-01-14 04:04:00,68.3,64.6,30.13,SSE,153,0.0,0.0,88,0.00,,,0.00,Wunderground v.1.13,2013-01-14 09:04:00,
2013-01-14 04:10:00,68.1,64.4,30.13,SSE,153,0.0,0.0,88,0.00,,,0.00,Wunderground v.1.13,2013-01-14 09:10:00,
2013-01-14 04:16:00,67.9,64.2,30.13,SSE,153,0.0,3.0,88,0.00,,,0.00,Wunderground v.1.13,2013-01-14 09:16:00,
2013-01-14 04:22:00,67.8,64.1,30.13,SSE,153,1.0,1.0,88,0.00,,,0.00,Wunderground v.1.13,2013-01-14 09:22:00,
2013-01-14 04:28:00,67.6,63.9,30.12,SSE,153,1.0,4.0,88,0.00,,,0.00,Wunderground v.1.13,2013-01-14 09:28:00,
2013-01-14 04:34:00,67.6,64.2,30.12,SSE,153,0.0,1.0,89,0.00,,,0.00,Wunderground v.1.13,2013-01-14 09:34:00,
2013-01-14 04:40:00,67.4,64.0,30.12,SSE,153,0.0,0.0,89,0.00,,,0.00,Wunderground v.1.13,2013-01-14 09:40:00,
2013-01-14 04:46:00,67.3,63.9,30.12,SSE,153,0.0,0.0,89,0.00,,,0.00,Wunderground v.1.13,2013-01-14 09:46:00,
2013-01-14 04:52:00,67.1,63.7,30.12,SSE,153,0.0,0.0,89,0.00,,,0.00,Wunderground v.1.13,2013-01-14 09:52:00,
2013-01-14 04:58:00,67.0,63.6,30.12,SSE,150,0.0,0.0,89,0.00,,,0.00,Wunderground v.1.13,2013-01-14 09:58:00,
2013-01-14 05:04:00,66.9,63.6,30.11,SSE,150,0.0,3.0,89,0.00,,,0.00,Wunderground v.1.13,2013-01-14 10:04:00,
2013-01-14 05:10:00,66.8,63.8,30.11,SSE,150,0.0,0.0,90,0.00,,,0.00,Wunderground v.1.13,2013-01-14 10:10:00,
2013-01-14 05:16:00,66.7,63.7,30.11,SSE,151,0.0,0.0,90,0.00,,,0.00,Wunderground v.1.13,2013-01-14 10:16:00,
2013-01-14 05:22:00,66.7,63.7,30.11,SSE,151,0.0,0.0,90,0.00,,,0.00,Wunderground v.1.13,2013-01-14 10:22:00,
2013-01-14 05:28:00,66.6,63.6,30.12,SSE,151,0.0,0.0,90,0.00,,,0.00,Wunderground v.1.13,2013-01-14 10:28:00,
2013-01-14 05:34:00,66.6,63.9,30.11,SSE,151,0.0,0.0,91,0.00,,,0.00,Wunderground v.1.13,2013-01-14 10:34:00,
2013-01-14 05:40:00,66.5,63.8,30.12,SSE,151,0.0,0.0,91,0.00,,,0.00,Wunderground v.1.13,2013-01-14 10:40:00,
2013-01-14 05:46:00,66.5,63.8,30.12,SSE,151,0.0,0.0,91,0.00,,,0.00,Wunderground v.1.13,2013-01-14 10:46:00,
2013-01-14 05:52:00,66.3,63.6,30.12,SSE,151,0.0,0.0,91,0.00,,,0.00,Wunderground v.1.13,2013-01-14 10:52:00,
2013-01-14 05:58:00,66.3,63.6,30.12,SSE,151,0.0,0.0,91,0.00,,,0.00,Wunderground v.1.13,2013-01-14 10:58:00,
2013-01-14 06:04:00,66.2,63.5,30.12,SSE,150,0.0,2.0,91,0.00,,,0.00,Wunderground v.1.13,2013-01-14 11:04:00,
2013-01-14 06:10:00,66.2,63.5,30.13,SSE,151,0.0,0.0,91,0.00,,,0.00,Wunderground v.1.13,2013-01-14 11:10:00,
2013-01-14 06:16:00,66.1,63.4,30.13,SSE,151,0.0,0.0,91,0.00,,,0.00,Wunderground v.1.13,2013-01-14 11:16:00,
2013-01-14 06:22:00,66.0,63.6,30.13,SSE,151,0.0,0.0,92,0.00,,,0.00,Wunderground v.1.13,2013-01-14 11:22:00,
2013-01-14 06:28:00,66.0,63.6,30.13,SSE,151,0.0,0.0,92,0.00,,,0.00,Wunderground v.1.13,2013-01-14 11:28:00,
2013-01-14 06:34:00,66.0,63.6,30.14,SSE,151,0.0,0.0,92,0.00,,,0.00,Wunderground v.1.13,2013-01-14 11:34:00,
2013-01-14 06:40:00,66.0,63.6,30.14,SSE,150,0.0,0.0,92,0.00,,,0.00,Wunderground v.1.13,2013-01-14 11:40:00,
2013-01-14 06:46:00,65.9,63.5,30.14,SSE,151,0.0,0.0,92,0.00,,,0.00,Wunderground v.1.13,2013-01-14 11:46:00,
2013-01-14 06:52:00,65.8,63.4,30.14,SSE,151,0.0,0.0,92,0.00,,,0.00,Wunderground v.1.13,2013-01-14 11:52:00,
2013-01-14 06:58:00,65.8,63.4,30.14,SSE,151,0.0,0.0,92,0.00,,,0.00,Wunderground v.1.13,2013-01-14 11:58:00,
2013-01-14 07:04:00,65.8,63.4,30.14,SSE,150,0.0,0.0,92,0.00,,,0.00,Wunderground v.1.13,2013-01-14 12:04:00,
2013-01-14 07:10:00,65.8,63.4,30.15,SSE,150,0.0,0.0,92,0.00,,,0.00,Wunderground v.1.13,2013-01-14 12:10:00,
2013-01-14 07:16:00,65.7,63.3,30.15,SSE,151,0.0,0.0,92,0.00,,,0.00,Wunderground v.1.13,2013-01-14 12:16:00,
2013-01-14 07:22:00,65.6,63.2,30.15,SSE,150,0.0,0.0,92,0.00,,,0.00,Wunderground v.1.13,2013-01-14 12:22:00,
2013-01-14 07:28:00,65.5,63.1,30.15,SSE,151,0.0,0.0,92,0.00,,,0.00,Wunderground v.1.13,2013-01-14 12:28:00,
2013-01-14 07:34:00,65.5,63.1,30.15,SSE,150,0.0,0.0,92,0.00,,,0.00,Wunderground v.1.13,2013-01-14 12:34:00,
2013-01-14 07:40:00,65.5,63.1,30.15,SSE,151,0.0,0.0,92,0.00,,,0.00,Wunderground v.1.13,2013-01-14 12:40:00,
2013-01-14 07:46:00,65.6,63.5,30.16,SSE,150,0.0,0.0,93,0.00,,,0.00,Wunderground v.1.13,2013-01-14 12:46:00,
2013-01-14 07:52:00,65.7,63.6,30.16,SSE,151,0.0,0.0,93,0.00,,,0.00,Wunderground v.1.13,2013-01-14 12:52:00,
2013-01-14 07:58:00,65.8,63.7,30.16,SSE,151,0.0,0.0,93,0.00,,,0.00,Wunderground v.1.13,2013-01-14 12:58:00,
2013-01-14 08:04:00,66.1,64.0,30.16,SSE,150,0.0,0.0,93,0.00,,,0.00,Wunderground v.1.13,2013-01-14 13:04:00,
2013-01-14 08:10:00,66.3,64.2,30.16,SSE,151,0.0,0.0,93,0.00,,,0.00,Wunderground v.1.13,2013-01-14 13:10:00,
2013-01-14 08:16:00,66.7,64.6,30.16,SSE,151,0.0,0.0,93,0.00,,,0.00,Wunderground v.1.13,2013-01-14 13:16:00,
2013-01-14 08:22:00,66.8,64.4,30.16,SSE,151,0.0,0.0,92,0.00,,,0.00,Wunderground v.1.13,2013-01-14 13:22:00,
2013-01-14 08:28:00,67.1,64.7,30.16,SSE,151,0.0,0.0,92,0.00,,,0.00,Wunderground v.1.13,2013-01-14 13:28:00,
2013-01-14 08:34:00,67.4,65.0,30.17,SSE,150,0.0,0.0,92,0.00,,,0.00,Wunderground v.1.13,2013-01-14 13:34:00,
2013-01-14 08:40:00,67.6,65.2,30.18,SSE,150,0.0,0.0,92,0.00,,,0.00,Wunderground v.1.13,2013-01-14 13:40:00,
2013-01-14 08:46:00,68.0,65.6,30.18,SSE,151,0.0,0.0,92,0.00,,,0.00,Wunderground v.1.13,2013-01-14 13:46:00,
2013-01-14 08:52:00,68.5,66.1,30.18,SSE,150,0.0,0.0,92,0.00,,,0.00,Wunderground v.1.13,2013-01-14 13:52:00,
2013-01-14 08:58:00,68.8,65.7,30.18,SSE,150,0.0,0.0,90,0.00,,,0.00,Wunderground v.1.13,2013-01-14 13:58:00,
2013-01-14 09:04:00,69.3,66.2,30.18,SSE,151,0.0,0.0,90,0.00,,,0.00,Wunderground v.1.13,2013-01-14 14:04:00,
2013-01-14 09:10:00,69.7,66.3,30.18,SSE,151,0.0,0.0,89,0.00,,,0.00,Wunderground v.1.13,2013-01-14 14:10:00,
2013-01-14 09:16:00,70.1,66.0,30.18,SSE,151,0.0,0.0,87,0.00,,,0.00,Wunderground v.1.13,2013-01-14 14:16:00,
2013-01-14 09:22:00,70.6,66.2,30.18,SSE,151,0.0,0.0,86,0.00,,,0.00,Wunderground v.1.13,2013-01-14 14:22:00,
2013-01-14 09:28:00,71.2,66.5,30.18,SSE,152,0.0,2.0,85,0.00,,,0.00,Wunderground v.1.13,2013-01-14 14:28:00,
2013-01-14 09:34:00,71.6,66.5,30.17,ESE,119,1.0,3.0,84,0.00,,,0.00,Wunderground v.1.13,2013-01-14 14:34:00,
2013-01-14 09:40:00,72.1,65.9,30.18,SE,144,1.0,4.0,81,0.00,,,0.00,Wunderground v.1.13,2013-01-14 14:40:00,
2013-01-14 09:46:00,72.2,65.7,30.18,SSE,156,2.0,3.0,80,0.00,,,0.00,Wunderground v.1.13,2013-01-14 14:46:00,
2013-01-14 09:52:00,72.5,65.6,30.18,SSE,150,1.0,1.0,79,0.00,,,0.00,Wunderground v.1.13,2013-01-14 14:52:00,
2013-01-14 09:58:00,72.7,65.8,30.19,SSE,154,1.0,2.0,79,0.00,,,0.00,Wunderground v.1.13,2013-01-14 14:58:00,
2013-01-14 10:04:00,73.0,65.7,30.19,ESE,106,1.0,2.0,78,0.00,,,0.00,Wunderground v.1.13,2013-01-14 15:04:00,
2013-01-14 10:10:00,72.9,65.3,30.19,SSE,156,2.0,2.0,77,0.00,,,0.00,Wunderground v.1.13,2013-01-14 15:10:00,
2013-01-14 10:16:00,73.2,65.2,30.19,SE,136,2.0,7.0,76,0.00,,,0.00,Wunderground v.1.13,2013-01-14 15:16:00,
2013-01-14 10:22:00,73.5,65.1,30.18,SE,127,1.0,2.0,75,0.00,,,0.00,Wunderground v.1.13,2013-01-14 15:22:00,
2013-01-14 10:28:00,73.4,65.0,30.18,SSE,158,1.0,1.0,75,0.00,,,0.00,Wunderground v.1.13,2013-01-14 15:28:00,
2013-01-14 10:34:00,73.8,65.4,30.18,SSE,152,1.0,1.0,75,0.00,,,0.00,Wunderground v.1.13,2013-01-14 15:34:00,
2013-01-14 10:40:00,74.3,65.1,30.18,SSE,157,1.0,3.0,73,0.00,,,0.00,Wunderground v.1.13,2013-01-14 15:40:00,
2013-01-14 10:46:00,74.5,64.9,30.18,SSE,148,2.0,4.0,72,0.00,,,0.00,Wunderground v.1.13,2013-01-14 15:46:00,
2013-01-14 10:52:00,74.7,65.1,30.18,SE,140,2.0,5.0,72,0.00,,,0.00,Wunderground v.1.13,2013-01-14 15:52:00,
2013-01-14 10:58:00,75.0,65.4,30.18,South,171,2.0,10.0,72,0.00,,,0.00,Wunderground v.1.13,2013-01-14 15:58:00,
2013-01-14 11:04:00,75.1,65.1,30.18,SE,124,3.0,9.0,71,0.00,,,0.00,Wunderground v.1.13,2013-01-14 16:04:00,
2013-01-14 11:10:00,75.5,65.0,30.18,SSE,157,2.0,5.0,70,0.00,,,0.00,Wunderground v.1.13,2013-01-14 16:10:00,
2013-01-14 11:16:00,75.3,65.2,30.17,SSE,159,1.0,9.0,71,0.00,,,0.00,Wunderground v.1.13,2013-01-14 16:16:00,
2013-01-14 11:22:00,75.5,65.4,30.17,SSE,152,1.0,1.0,71,0.00,,,0.00,Wunderground v.1.13,2013-01-14 16:22:00,
2013-01-14 11:28:00,75.7,65.2,30.17,SSE,166,1.0,6.0,70,0.00,,,0.00,Wunderground v.1.13,2013-01-14 16:28:00,
2013-01-14 11:34:00,76.2,65.7,30.17,SSE,165,1.0,1.0,70,0.00,,,0.00,Wunderground v.1.13,2013-01-14 16:34:00,
2013-01-14 11:40:00,76.2,64.9,30.17,SE,140,2.0,6.0,68,0.00,,,0.00,Wunderground v.1.13,2013-01-14 16:40:00,
2013-01-14 11:46:00,76.4,65.1,30.16,SE,137,1.0,2.0,68,0.00,,,0.00,Wunderground v.1.13,2013-01-14 16:46:00,
2013-01-14 11:52:00,76.6,65.2,30.17,SSW,200,1.0,6.0,68,0.00,,,0.00,Wunderground v.1.13,2013-01-14 16:52:00,
2013-01-14 11:58:00,76.8,63.7,30.16,SSE,161,2.0,10.0,64,0.00,,,0.00,Wunderground v.1.13,2013-01-14 16:58:00,
2013-01-14 12:04:00,77.0,63.9,30.16,SSE,166,2.0,12.0,64,0.00,,,0.00,Wunderground v.1.13,2013-01-14 17:04:00,
2013-01-14 12:10:00,77.0,63.0,30.16,SSE,150,1.0,2.0,62,0.00,,,0.00,Wunderground v.1.13,2013-01-14 17:10:00,
2013-01-14 12:16:00,77.2,64.1,30.16,SE,145,1.0,6.0,64,0.00,,,0.00,Wunderground v.1.13,2013-01-14 17:16:00,
2013-01-14 12:22:00,77.2,62.7,30.16,SE,146,1.0,5.0,61,0.00,,,0.00,Wunderground v.1.13,2013-01-14 17:22:00,
2013-01-14 12:28:00,77.1,63.5,30.16,SSW,202,1.0,1.0,63,0.00,,,0.00,Wunderground v.1.13,2013-01-14 17:28:00,
2013-01-14 12:34:00,77.1,62.6,30.15,South,169,0.0,0.0,61,0.00,,,0.00,Wunderground v.1.13,2013-01-14 17:34:00,
2013-01-14 12:40:00,77.8,63.3,30.15,South,180,0.0,0.0,61,0.00,,,0.00,Wunderground v.1.13,2013-01-14 17:40:00,
2013-01-14 12:46:00,77.7,62.7,30.15,SSE,157,1.0,10.0,60,0.00,,,0.00,Wunderground v.1.13,2013-01-14 17:46:00,
2013-01-14 12:52:00,77.4,62.9,30.15,SE,128,1.0,2.0,61,0.00,,,0.00,Wunderground v.1.13,2013-01-14 17:52:00,
2013-01-14 12:58:00,78.0,63.5,30.14,South,175,0.0,2.0,61,0.00,,,0.00,Wunderground v.1.13,2013-01-14 17:58:00,
2013-01-14 13:04:00,78.1,63.1,30.14,SSW,205,0.0,12.0,60,0.00,,,0.00,Wunderground v.1.13,2013-01-14 18:04:00,
2013-01-14 13:10:00,78.2,63.6,30.14,ESE,113,0.0,1.0,61,0.00,,,0.00,Wunderground v.1.13,2013-01-14 18:10:00,
2013-01-14 13:16:00,78.8,63.3,30.13,South,187,1.0,7.0,59,0.00,,,0.00,Wunderground v.1.13,2013-01-14 18:16:00,
2013-01-14 13:22:00,79.3,63.2,30.13,SSW,204,1.0,3.0,58,0.00,,,0.00,Wunderground v.1.13,2013-01-14 18:22:00,
2013-01-14 13:28:00,78.7,62.2,30.13,SSE,161,1.0,5.0,57,0.00,,,0.00,Wunderground v.1.13,2013-01-14 18:28:00,
2013-01-14 13:34:00,78.8,61.8,30.13,SSE,155,2.0,3.0,56,0.00,,,0.00,Wunderground v.1.13,2013-01-14 18:34:00,
2013-01-14 13:40:00,78.7,62.2,30.13,SSW,192,1.0,5.0,57,0.00,,,0.00,Wunderground v.1.13,2013-01-14 18:40:00,
2013-01-14 13:46:00,78.7,62.7,30.12,SSE,164,0.0,4.0,58,0.00,,,0.00,Wunderground v.1.13,2013-01-14 18:46:00,
2013-01-14 13:52:00,78.5,62.0,30.12,SSE,151,1.0,6.0,57,0.00,,,0.00,Wunderground v.1.13,2013-01-14 18:52:00,
2013-01-14 13:58:00,78.1,62.1,30.12,SSE,152,1.0,5.0,58,0.00,,,0.00,Wunderground v.1.13,2013-01-14 18:58:00,
2013-01-14 14:04:00,78.3,62.3,30.12,SSW,207,1.0,8.0,58,0.00,,,0.00,Wunderground v.1.13,2013-01-14 19:04:00,
2013-01-14 14:10:00,78.2,61.7,30.12,SSE,164,1.0,1.0,57,0.00,,,0.00,Wunderground v.1.13,2013-01-14 19:10:00,
2013-01-14 14:16:00,78.0,62.0,30.12,SSE,148,1.0,2.0,58,0.00,,,0.00,Wunderground v.1.13,2013-01-14 19:16:00,
2013-01-14 14:22:00,78.1,62.1,30.11,SE,141,1.0,5.0,58,0.00,,,0.00,Wunderground v.1.13,2013-01-14 19:22:00,
2013-01-14 14:28:00,78.1,62.6,30.12,SSW,207,2.0,6.0,59,0.00,,,0.00,Wunderground v.1.13,2013-01-14 19:28:00,
2013-01-14 14:34:00,78.6,62.6,30.12,South,184,1.0,4.0,58,0.00,,,0.00,Wunderground v.1.13,2013-01-14 19:34:00,
2013-01-14 14:40:00,78.8,62.3,30.12,South,190,0.0,1.0,57,0.00,,,0.00,Wunderground v.1.13,2013-01-14 19:40:00,
2013-01-14 14:46:00,78.6,63.1,30.12,SW,233,1.0,2.0,59,0.00,,,0.00,Wunderground v.1.13,2013-01-14 19:46:00,
2013-01-14 14:52:00,78.7,63.2,30.11,WSW,253,1.0,1.0,59,0.00,,,0.00,Wunderground v.1.13,2013-01-14 19:52:00,
2013-01-14 14:58:00,78.7,63.2,30.11,WSW,249,0.0,1.0,59,0.00,,,0.00,Wunderground v.1.13,2013-01-14 19:58:00,
2013-01-14 15:04:00,79.0,63.0,30.12,WSW,257,2.0,10.0,58,0.00,,,0.00,Wunderground v.1.13,2013-01-14 20:04:00,
2013-01-14 15:10:00,79.2,63.1,30.12,SW,227,3.0,10.0,58,0.00,,,0.00,Wunderground v.1.13,2013-01-14 20:10:00,
2013-01-14 15:16:00,78.7,63.2,30.12,SW,227,2.0,3.0,59,0.00,,,0.00,Wunderground v.1.13,2013-01-14 20:16:00,
2013-01-14 15:22:00,78.6,63.1,30.12,SW,229,3.0,9.0,59,0.00,,,0.00,Wunderground v.1.13,2013-01-14 20:22:00,
2013-01-14 15:28:00,79.1,63.5,30.12,SSW,205,2.0,3.0,59,0.00,,,0.00,Wunderground v.1.13,2013-01-14 20:28:00,
2013-01-14 15:34:00,78.8,63.3,30.12,SSW,211,1.0,7.0,59,0.00,,,0.00,Wunderground v.1.13,2013-01-14 20:34:00,
2013-01-14 15:40:00,78.8,62.8,30.12,WSW,246,1.0,5.0,58,0.00,,,0.00,Wunderground v.1.13,2013-01-14 20:40:00,
2013-01-14 15:46:00,78.8,62.8,30.12,West,265,0.0,1.0,58,0.00,,,0.00,Wunderground v.1.13,2013-01-14 20:46:00,
2013-01-14 15:52:00,78.5,62.5,30.12,SW,227,0.0,0.0,58,0.00,,,0.00,Wunderground v.1.13,2013-01-14 20:52:00,
2013-01-14 15:58:00,78.1,62.1,30.13,SW,226,2.0,2.0,58,0.00,,,0.00,Wunderground v.1.13,2013-01-14 20:58:00,
2013-01-14 16:04:00,78.1,62.1,30.13,SW,235,1.0,7.0,58,0.00,,,0.00,Wunderground v.1.13,2013-01-14 21:04:00,
2013-01-14 16:10:00,77.8,61.8,30.13,WSW,247,1.0,1.0,58,0.00,,,0.00,Wunderground v.1.13,2013-01-14 21:10:00,
2013-01-14 16:16:00,77.4,61.5,30.13,West,263,1.0,4.0,58,0.00,,,0.00,Wunderground v.1.13,2013-01-14 21:16:00,
2013-01-14 16:22:00,77.1,61.7,30.13,SW,225,1.0,1.0,59,0.00,,,0.00,Wunderground v.1.13,2013-01-14 21:22:00,
2013-01-14 16:28:00,77.0,61.6,30.13,WSW,245,1.0,4.0,59,0.00,,,0.00,Wunderground v.1.13,2013-01-14 21:28:00,
2013-01-14 16:34:00,77.0,61.6,30.13,West,259,1.0,1.0,59,0.00,,,0.00,Wunderground v.1.13,2013-01-14 21:34:00,
2013-01-14 16:40:00,77.0,62.0,30.13,WSW,254,0.0,0.0,60,0.00,,,0.00,Wunderground v.1.13,2013-01-14 21:40:00,
2013-01-14 16:46:00,77.2,61.8,30.13,WSW,253,0.0,0.0,59,0.00,,,0.00,Wunderground v.1.13,2013-01-14 21:46:00,
2013-01-14 16:52:00,76.9,62.0,30.13,West,259,0.0,2.0,60,0.00,,,0.00,Wunderground v.1.13,2013-01-14 21:52:00,
2013-01-14 16:58:00,76.7,61.8,30.14,WSW,247,0.0,3.0,60,0.00,,,0.00,Wunderground v.1.13,2013-01-14 21:58:00,
2013-01-14 17:04:00,76.5,61.6,30.13,SW,230,0.0,9.0,60,0.00,,,0.00,Wunderground v.1.13,2013-01-14 22:04:00,
2013-01-14 17:10:00,76.3,61.9,30.13,WSW,246,1.0,2.0,61,0.00,,,0.00,Wunderground v.1.13,2013-01-14 22:10:00,
2013-01-14 17:16:00,76.1,62.1,30.13,WSW,237,1.0,1.0,62,0.00,,,0.00,Wunderground v.1.13,2013-01-14 22:16:00,
2013-01-14 17:22:00,76.2,61.8,30.14,SSW,213,0.0,1.0,61,0.00,,,0.00,Wunderground v.1.13,2013-01-14 22:22:00,
2013-01-14 17:28:00,76.1,61.7,30.14,SW,215,0.0,0.0,61,0.00,,,0.00,Wunderground v.1.13,2013-01-14 22:28:00,
2013-01-14 17:34:00,76.0,62.0,30.14,SW,223,0.0,0.0,62,0.00,,,0.00,Wunderground v.1.13,2013-01-14 22:34:00,
2013-01-14 17:40:00,75.7,61.3,30.14,SW,223,0.0,0.0,61,0.00,,,0.00,Wunderground v.1.13,2013-01-14 22:40:00,
2013-01-14 17:46:00,75.5,61.6,30.14,SW,223,0.0,0.0,62,0.00,,,0.00,Wunderground v.1.13,2013-01-14 22:46:00,
2013-01-14 17:52:00,75.2,61.3,30.14,SW,223,0.0,0.0,62,0.00,,,0.00,Wunderground v.1.13,2013-01-14 22:52:00,
2013-01-14 17:58:00,75.0,61.5,30.14,SW,223,0.0,0.0,63,0.00,,,0.00,Wunderground v.1.13,2013-01-14 22:58:00,
2013-01-14 18:04:00,74.6,62.1,30.15,SW,223,0.0,6.0,65,0.00,,,0.00,Wunderground v.1.13,2013-01-14 23:04:00,
2013-01-14 18:10:00,74.1,62.0,30.15,SW,223,0.0,0.0,66,0.00,,,0.00,Wunderground v.1.13,2013-01-14 23:10:00,
2013-01-14 18:16:00,73.6,62.0,30.15,SW,223,0.0,0.0,67,0.00,,,0.00,Wunderground v.1.13,2013-01-14 23:16:00,
2013-01-14 18:22:00,73.3,61.7,30.15,SW,223,0.0,0.0,67,0.00,,,0.00,Wunderground v.1.13,2013-01-14 23:22:00,
2013-01-14 18:28:00,73.0,61.8,30.15,SW,223,0.0,0.0,68,0.00,,,0.00,Wunderground v.1.13,2013-01-14 23:28:00,
2013-01-14 18:34:00,72.8,61.6,30.15,SW,223,0.0,0.0,68,0.00,,,0.00,Wunderground v.1.13,2013-01-14 23:34:00,
2013-01-14 18:40:00,72.4,62.1,30.15,SW,223,0.0,0.0,70,0.00,,,0.00,Wunderground v.1.13,2013-01-14 23:40:00,
2013-01-14 18:46:00,72.1,62.2,30.15,SW,223,0.0,0.0,71,0.00,,,0.00,Wunderground v.1.13,2013-01-14 23:46:00,
2013-01-14 18:52:00,71.7,61.8,30.14,SW,223,0.0,0.0,71,0.00,,,0.00,Wunderground v.1.13,2013-01-14 23:52:00,
2013-01-14 18:58:00,71.3,61.4,30.15,SW,223,0.0,0.0,71,0.00,,,0.00,Wunderground v.1.13,2013-01-14 23:58:00,
2013-01-14 19:04:00,71.1,61.2,30.15,SW,223,0.0,0.0,71,0.00,,,0.00,Wunderground v.1.13,2013-01-15 00:04:00,
2013-01-14 19:10:00,71.1,61.6,30.14,SW,223,0.0,0.0,72,0.00,,,0.00,Wunderground v.1.13,2013-01-15 00:10:00,
2013-01-14 19:16:00,71.0,61.9,30.15,SW,223,0.0,0.0,73,0.00,,,0.00,Wunderground v.1.13,2013-01-15 00:16:00,
2013-01-14 19:22:00,70.8,61.3,30.14,SW,223,0.0,0.0,72,0.00,,,0.00,Wunderground v.1.13,2013-01-15 00:22:00,
2013-01-14 19:28:00,70.5,61.4,30.14,SW,223,0.0,0.0,73,0.00,,,0.00,Wunderground v.1.13,2013-01-15 00:28:00,
2013-01-14 19:34:00,70.1,61.4,30.14,SW,223,0.0,0.0,74,0.00,,,0.00,Wunderground v.1.13,2013-01-15 00:34:00,
2013-01-14 19:40:00,69.7,61.0,30.15,SW,223,0.0,0.0,74,0.00,,,0.00,Wunderground v.1.13,2013-01-15 00:40:00,
2013-01-14 19:46:00,69.3,60.7,30.14,SW,223,0.0,0.0,74,0.00,,,0.00,Wunderground v.1.13,2013-01-15 00:46:00,
2013-01-14 19:52:00,69.2,61.7,30.14,SW,223,0.0,0.0,77,0.00,,,0.00,Wunderground v.1.13,2013-01-15 00:52:00,
2013-01-14 19:58:00,68.9,61.4,30.14,SW,223,0.0,0.0,77,0.00,,,0.00,Wunderground v.1.13,2013-01-15 00:58:00,
2013-01-14 20:04:00,68.6,61.5,30.14,SW,223,0.0,0.0,78,0.00,,,0.00,Wunderground v.1.13,2013-01-15 01:04:00,
2013-01-14 20:10:00,68.3,61.5,30.14,SW,223,0.0,0.0,79,0.00,,,0.00,Wunderground v.1.13,2013-01-15 01:10:00,
2013-01-14 20:16:00,67.9,61.1,30.15,SW,223,0.0,0.0,79,0.00,,,0.00,Wunderground v.1.13,2013-01-15 01:16:00,
2013-01-14 20:22:00,67.6,61.2,30.15,SW,223,0.0,0.0,80,0.00,,,0.00,Wunderground v.1.13,2013-01-15 01:22:00,
2013-01-14 20:28:00,67.3,60.9,30.14,SW,223,0.0,0.0,80,0.00,,,0.00,Wunderground v.1.13,2013-01-15 01:28:00,
2013-01-14 20:34:00,67.1,61.1,30.14,SW,223,0.0,0.0,81,0.00,,,0.00,Wunderground v.1.13,2013-01-15 01:34:00,
2013-01-14 20:40:00,67.0,61.3,30.14,SW,223,0.0,0.0,82,0.00,,,0.00,Wunderground v.1.13,2013-01-15 01:40:00,
2013-01-14 20:46:00,66.8,61.1,30.14,SW,223,0.0,0.0,82,0.00,,,0.00,Wunderground v.1.13,2013-01-15 01:46:00,
2013-01-14 20:52:00,66.6,60.9,30.14,SW,223,0.0,0.0,82,0.00,,,0.00,Wunderground v.1.13,2013-01-15 01:52:00,
2013-01-14 20:58:00,66.3,61.0,30.14,SW,223,0.0,0.0,83,0.00,,,0.00,Wunderground v.1.13,2013-01-15 01:58:00,
2013-01-14 21:04:00,66.1,60.8,30.14,SW,223,0.0,0.0,83,0.00,,,0.00,Wunderground v.1.13,2013-01-15 02:04:00,
2013-01-14 21:10:00,66.0,60.7,30.15,SW,223,0.0,0.0,83,0.00,,,0.00,Wunderground v.1.13,2013-01-15 02:10:00,
2013-01-14 21:16:00,65.9,60.6,30.15,SW,223,0.0,0.0,83,0.00,,,0.00,Wunderground v.1.13,2013-01-15 02:16:00,
2013-01-14 21:22:00,66.0,61.0,30.15,SW,223,0.0,0.0,84,0.00,,,0.00,Wunderground v.1.13,2013-01-15 02:22:00,
2013-01-14 21:28:00,65.9,60.9,30.15,SW,223,0.0,0.0,84,0.00,,,0.00,Wunderground v.1.13,2013-01-15 02:28:00,
2013-01-14 21:34:00,65.7,60.7,30.15,SW,223,0.0,0.0,84,0.00,,,0.00,Wunderground v.1.13,2013-01-15 02:34:00,
2013-01-14 21:40:00,65.5,60.9,30.15,SW,223,0.0,0.0,85,0.00,,,0.00,Wunderground v.1.13,2013-01-15 02:40:00,
2013-01-14 21:46:00,65.3,60.7,30.15,SW,223,0.0,0.0,85,0.00,,,0.00,Wunderground v.1.13,2013-01-15 02:46:00,
2013-01-14 21:52:00,65.2,60.6,30.15,SW,223,0.0,0.0,85,0.00,,,0.00,Wunderground v.1.13,2013-01-15 02:52:00,
2013-01-14 21:58:00,65.0,60.7,30.15,SW,223,0.0,0.0,86,0.00,,,0.00,Wunderground v.1.13,2013-01-15 02:58:00,
2013-01-14 22:04:00,64.8,60.5,30.15,SW,223,0.0,0.0,86,0.00,,,0.00,Wunderground v.1.13,2013-01-15 03:04:00,
2013-01-14 22:10:00,64.6,60.3,30.15,SW,223,0.0,0.0,86,0.00,,,0.00,Wunderground v.1.13,2013-01-15 03:10:00,
2013-01-14 22:16:00,64.6,60.6,30.15,SW,223,0.0,0.0,87,0.00,,,0.00,Wunderground v.1.13,2013-01-15 03:16:00,
2013-01-14 22:22:00,64.5,60.5,30.15,SW,223,0.0,0.0,87,0.00,,,0.00,Wunderground v.1.13,2013-01-15 03:22:00,
2013-01-14 22:28:00,64.4,60.8,30.15,SW,223,0.0,0.0,88,0.00,,,0.00,Wunderground v.1.13,2013-01-15 03:28:00,
2013-01-14 22:34:00,64.4,60.8,30.15,SW,223,0.0,0.0,88,0.00,,,0.00,Wunderground v.1.13,2013-01-15 03:34:00,
2013-01-14 22:40:00,64.4,60.8,30.15,SW,223,0.0,0.0,88,0.00,,,0.00,Wunderground v.1.13,2013-01-15 03:40:00,
2013-01-14 22:46:00,64.3,60.7,30.15,SW,223,0.0,0.0,88,0.00,,,0.00,Wunderground v.1.13,2013-01-15 03:46:00,
2013-01-14 22:52:00,64.1,60.5,30.15,SW,223,0.0,0.0,88,0.00,,,0.00,Wunderground v.1.13,2013-01-15 03:52:00,
2013-01-14 22:58:00,64.0,60.7,30.14,SW,223,0.0,0.0,89,0.00,,,0.00,Wunderground v.1.13,2013-01-15 03:58:00,
2013-01-14 23:04:00,64.1,60.8,30.14,SW,223,0.0,0.0,89,0.00,,,0.00,Wunderground v.1.13,2013-01-15 04:04:00,
2013-01-14 23:10:00,64.1,60.8,30.14,SW,223,0.0,0.0,89,0.00,,,0.00,Wunderground v.1.13,2013-01-15 04:10:00,
2013-01-14 23:16:00,64.2,61.2,30.14,SW,223,0.0,0.0,90,0.00,,,0.00,Wunderground v.1.13,2013-01-15 04:16:00,
2013-01-14 23:22:00,64.3,61.0,30.14,SW,223,0.0,0.0,89,0.00,,,0.00,Wunderground v.1.13,2013-01-15 04:22:00,
2013-01-14 23:28:00,64.1,60.8,30.14,SW,223,0.0,0.0,89,0.00,,,0.00,Wunderground v.1.13,2013-01-15 04:28:00,
2013-01-14 23:34:00,64.0,60.7,30.14,SW,223,0.0,0.0,89,0.00,,,0.00,Wunderground v.1.13,2013-01-15 04:34:00,
2013-01-14 23:40:00,63.8,60.5,30.15,SW,223,0.0,0.0,89,0.00,,,0.00,Wunderground v.1.13,2013-01-15 04:40:00,
2013-01-14 23:46:00,63.7,60.4,30.15,SW,223,0.0,0.0,89,0.00,,,0.00,Wunderground v.1.13,2013-01-15 04:46:00,
2013-01-14 23:52:00,63.6,60.3,30.14,SW,223,0.0,0.0,89,0.00,,,0.00,Wunderground v.1.13,2013-01-15 04:52:00,
2013-01-14 23:58:00,63.6,60.6,30.14,SW,223,0.0,0.0,90,0.00,,,0.00,Wunderground v.1.13,2013-01-15 04:58:00,